Time;durP1;ratioP1;P1;durP2;ratioP2;P2;SDS_P1;SDS_P2;PMS_P1;PMS_P2;Temp;Humidity;BMP_temperature;BMP_pressure;BME280_temperature;BME280_humidity;BME280_pressure;Samples;Min_cycle;Max_cycle;Signal;HPM_P1;HPM_P2
2023/04/06 00:02:12;;;;;;;8.60;7.30;;;;;;;;;;105777;1250;61228;-53
2023/04/06 00:04:40;;;;;;;7.00;6.30;;;;;;;;;;106287;1253;60341;-52
2023/04/06 00:07:09;;;;;;;8.50;6.50;;;;;;;;;;105771;1253;62740;-51
2023/04/06 00:09:37;;;;;;;9.10;8.10;;;;;;;;;;106570;1253;60533;-52
2023/04/06 00:12:05;;;;;;;8.70;7.80;;;;;;;;;;106086;1250;60399;-50
2023/04/06 00:14:34;;;;;;;12.30;8.40;;;;;;;;;;105727;1251;61891;-47
2023/04/06 00:17:02;;;;;;;9.30;8.20;;;;;;;;;;105809;1254;60533;-53
2023/04/06 00:19:33;;;;;;;10.60;8.20;;;;;;;;;;105760;1251;60464;-51
2023/04/06 00:22:02;;;;;;;8.50;7.70;;;;;;;;;;105824;1251;60530;-50
2023/04/06 00:24:30;;;;;;;9.20;8.40;;;;;;;;;;106276;1251;60959;-53
2023/04/06 00:26:58;;;;;;;13.00;9.90;;;;;;;;;;105741;1254;62376;-53
2023/04/06 00:29:25;;;;;;;11.90;9.30;;;;;;;;;;106340;1253;60418;-54
2023/04/06 00:31:54;;;;;;;10.70;9.00;;;;;;;;;;105892;1251;60515;-54
2023/04/06 00:34:22;;;;;;;12.00;8.90;;;;;;;;;;105723;1254;60463;-51
2023/04/06 00:36:50;;;;;;;9.60;8.70;;;;;;;;;;105956;1251;60442;-49
2023/04/06 00:39:18;;;;;;;11.80;9.70;;;;;;;;;;107452;1251;62137;-52
2023/04/06 00:41:50;;;;;;;11.20;8.90;;;;;;;;;;105919;1251;60501;-50
2023/04/06 00:44:18;;;;;;;12.10;9.00;;;;;;;;;;106076;1251;61705;-50
2023/04/06 00:46:46;;;;;;;12.00;9.70;;;;;;;;;;106018;1251;60463;-50
2023/04/06 00:49:15;;;;;;;11.00;9.30;;;;;;;;;;105891;1253;60415;-49
2023/04/06 00:51:43;;;;;;;14.70;9.10;;;;;;;;;;106048;1251;62146;-50
2023/04/06 00:54:11;;;;;;;11.40;8.40;;;;;;;;;;105847;1256;60283;-51
2023/04/06 00:56:41;;;;;;;9.70;8.40;;;;;;;;;;105776;1252;60951;-51
2023/04/06 00:59:10;;;;;;;10.40;9.30;;;;;;;;;;105868;1257;60527;-51
2023/04/06 01:01:40;;;;;;;10.50;9.50;;;;;;;;;;107444;1251;60498;-52
2023/04/06 01:04:22;;;;;;;11.60;9.10;;;;;;;;;;105613;1251;62080;-52
2023/04/06 01:06:53;;;;;;;10.30;9.20;;;;;;;;;;105740;1255;60532;-50
2023/04/06 01:09:27;;;;;;;10.60;9.10;;;;;;;;;;106132;1253;60455;-53
2023/04/06 01:11:56;;;;;;;12.40;9.60;;;;;;;;;;109424;1249;59671;-54
2023/04/06 01:14:29;;;;;;;10.80;9.50;;;;;;;;;;109303;1250;59170;-52
2023/04/06 01:17:00;;;;;;;13.60;10.80;;;;;;;;;;109247;1251;61195;-53
2023/04/06 01:19:31;;;;;;;11.70;9.60;;;;;;;;;;109292;1251;58244;-51
2023/04/06 01:21:59;;;;;;;10.20;8.20;;;;;;;;;;109332;1251;60976;-53
2023/04/06 01:24:30;;;;;;;11.80;8.80;;;;;;;;;;108949;1251;60523;-51
2023/04/06 01:27:21;;;;;;;14.80;9.80;;;;;;;;;;105638;1251;60444;-51
2023/04/06 01:30:20;;;;;;;10.60;9.00;;;;;;;;;;109409;1250;62264;-52
2023/04/06 01:32:52;;;;;;;12.10;10.10;;;;;;;;;;109249;1251;58317;-54
2023/04/06 01:35:30;;;;;;;11.10;9.80;;;;;;;;;;109293;1251;62014;-53
2023/04/06 01:38:10;;;;;;;14.20;10.70;;;;;;;;;;109263;1256;58252;-51
2023/04/06 01:40:39;;;;;;;15.10;10.70;;;;;;;;;;109371;1251;58375;-55
2023/04/06 01:43:07;;;;;;;12.30;10.80;;;;;;;;;;107607;1254;61292;-53
2023/04/06 01:45:41;;;;;;;9.80;8.80;;;;;;;;;;109359;1250;58425;-55
2023/04/06 01:48:16;;;;;;;12.70;10.50;;;;;;;;;;109380;1250;60665;-56
2023/04/06 01:50:44;;;;;;;10.00;8.40;;;;;;;;;;109268;1251;58214;-55
2023/04/06 01:53:15;;;;;;;11.50;9.30;;;;;;;;;;109278;1251;58512;-55
2023/04/06 01:55:43;;;;;;;12.10;10.60;;;;;;;;;;109413;1251;62162;-55
2023/04/06 01:58:17;;;;;;;14.10;10.90;;;;;;;;;;108547;1254;60472;-55
2023/04/06 02:00:46;;;;;;;13.50;9.70;;;;;;;;;;106362;1256;60978;-54
2023/04/06 02:03:15;;;;;;;13.20;10.20;;;;;;;;;;106639;1252;60450;-53
2023/04/06 02:05:43;;;;;;;11.40;10.10;;;;;;;;;;107857;1253;60270;-52
2023/04/06 02:08:23;;;;;;;18.30;12.00;;;;;;;;;;106181;1251;63534;-54
2023/04/06 02:10:52;;;;;;;14.40;10.60;;;;;;;;;;106654;1253;60375;-54
2023/04/06 02:13:29;;;;;;;13.00;11.10;;;;;;;;;;106324;1250;60816;-54
2023/04/06 02:15:57;;;;;;;13.10;10.20;;;;;;;;;;106319;1253;60415;-54
2023/04/06 02:18:29;;;;;;;13.20;9.70;;;;;;;;;;105891;1251;60410;-55
2023/04/06 02:20:57;;;;;;;11.00;9.90;;;;;;;;;;105831;1253;61284;-54
2023/04/06 02:23:26;;;;;;;10.50;8.80;;;;;;;;;;106232;1254;60405;-51
2023/04/06 02:25:57;;;;;;;10.60;9.50;;;;;;;;;;106072;1256;60453;-53
2023/04/06 02:28:26;;;;;;;10.00;8.70;;;;;;;;;;107267;1256;60497;-54
2023/04/06 02:30:54;;;;;;;9.70;8.60;;;;;;;;;;107145;1253;59147;-54
2023/04/06 02:33:26;;;;;;;10.20;9.10;;;;;;;;;;105753;1251;62152;-53
2023/04/06 02:35:54;;;;;;;10.90;9.50;;;;;;;;;;105898;1253;60421;-55
2023/04/06 02:38:23;;;;;;;10.60;8.90;;;;;;;;;;106203;1254;60962;-54
2023/04/06 02:40:52;;;;;;;10.00;8.50;;;;;;;;;;107237;1253;60549;-53
2023/04/06 02:43:26;;;;;;;11.10;9.20;;;;;;;;;;106223;1251;60425;-51
2023/04/06 02:46:01;;;;;;;12.50;8.40;;;;;;;;;;106014;1255;62224;-53
2023/04/06 02:48:31;;;;;;;13.50;9.50;;;;;;;;;;105708;1251;60878;-50
2023/04/06 02:50:59;;;;;;;13.70;9.80;;;;;;;;;;106453;1253;60460;-55
2023/04/06 02:53:28;;;;;;;12.40;9.60;;;;;;;;;;105798;1257;60522;-53
2023/04/06 02:55:56;;;;;;;9.50;8.60;;;;;;;;;;106237;1251;60792;-53
2023/04/06 02:58:27;;;;;;;14.70;10.60;;;;;;;;;;105863;1251;62222;-50
2023/04/06 03:00:56;;;;;;;8.80;7.70;;;;;;;;;;106065;1254;60342;-52
2023/04/06 03:03:25;;;;;;;10.90;8.60;;;;;;;;;;106174;1251;60964;-52
2023/04/06 03:05:54;;;;;;;13.40;10.10;;;;;;;;;;106530;1251;60418;-55
2023/04/06 03:08:30;;;;;;;9.20;7.90;;;;;;;;;;105878;1251;60448;-55
2023/04/06 03:10:59;;;;;;;9.90;8.60;;;;;;;;;;106059;1257;62118;-53
2023/04/06 03:13:34;;;;;;;8.30;7.50;;;;;;;;;;105858;1253;60318;-54
2023/04/06 03:16:02;;;;;;;9.70;8.10;;;;;;;;;;106090;1255;60812;-53
2023/04/06 03:18:31;;;;;;;12.00;8.90;;;;;;;;;;105722;1251;60520;-52
2023/04/06 03:21:00;;;;;;;11.40;8.70;;;;;;;;;;105884;1251;60403;-54
2023/04/06 03:23:37;;;;;;;9.70;8.80;;;;;;;;;;106346;1256;62230;-54
2023/04/06 03:26:05;;;;;;;11.20;8.50;;;;;;;;;;105738;1254;59439;-52
2023/04/06 03:28:33;;;;;;;9.80;8.00;;;;;;;;;;106525;1257;60721;-53
2023/04/06 03:31:07;;;;;;;9.60;8.70;;;;;;;;;;106445;1256;60505;-52
2023/04/06 03:33:42;;;;;;;10.10;9.10;;;;;;;;;;105699;1250;60475;-54
2023/04/06 03:36:14;;;;;;;11.60;10.40;;;;;;;;;;106002;1256;61982;-53
2023/04/06 03:38:46;;;;;;;11.40;8.20;;;;;;;;;;106145;1257;60533;-54
2023/04/06 03:41:14;;;;;;;9.70;8.60;;;;;;;;;;105916;1251;60858;-51
2023/04/06 03:43:49;;;;;;;9.80;8.10;;;;;;;;;;105859;1251;60547;-54
2023/04/06 03:46:18;;;;;;;9.30;7.90;;;;;;;;;;106422;1251;60510;-54
2023/04/06 03:48:48;;;;;;;9.70;8.10;;;;;;;;;;105948;1256;62313;-53
2023/04/06 03:51:17;;;;;;;8.70;7.80;;;;;;;;;;105572;1251;252092;-53
2023/04/06 03:55:51;;;;;;;8.80;7.80;;;;;;;-100.60;19.20;19833.38;100450;1290;1002516;-52
2023/04/06 03:58:19;;;;;;;11.50;8.00;;;;;;;-128.00;-1.00;-1.00;105718;1264;1011346;-54
2023/04/06 04:00:47;;;;;;;7.80;7.10;;;;;;;-128.00;-1.00;-1.00;105320;1267;1002093;-53
2023/04/06 04:03:16;;;;;;;8.10;7.00;;;;;;;-128.00;-1.00;-1.00;102195;1269;1012940;-55
2023/04/06 04:05:44;;;;;;;13.10;6.20;;;;;;;-128.00;-1.00;-1.00;105752;1269;1012903;-55
2023/04/06 04:08:13;;;;;;;8.40;6.80;;;;;;;-128.00;-1.00;-1.00;102542;1265;1012556;-54
2023/04/06 04:10:41;;;;;;;9.50;6.90;;;;;;;-128.00;-1.00;-1.00;106371;1253;1010343;-54
2023/04/06 04:13:10;;;;;;;7.40;6.10;;;;;;;-128.00;-1.00;-1.00;106225;1253;1011092;-52
2023/04/06 04:15:47;;;;;;;8.20;5.70;;;;;;;-128.00;-1.00;-1.00;102892;1257;1012833;-53
2023/04/06 04:18:16;;;;;;;12.30;7.10;;;;;;;-128.00;-1.00;-1.00;102989;1257;1012482;-52
2023/04/06 04:20:44;;;;;;;9.60;6.30;;;;;;;-128.00;-1.00;-1.00;102875;1253;1013470;-48
2023/04/06 04:23:12;;;;;;;7.50;6.80;;;;;;;-128.00;-1.00;-1.00;102966;1256;1010503;-52
2023/04/06 04:25:43;;;;;;;7.60;6.90;;;;;;;-128.00;-1.00;-1.00;106397;1254;1010685;-54
2023/04/06 04:28:11;;;;;;;8.40;6.40;;;;;;;-128.00;-1.00;-1.00;103570;1257;1012670;-54
2023/04/06 04:30:41;;;;;;;8.30;6.90;;;;;;;-128.00;-1.00;-1.00;103005;1253;1012564;-51
2023/04/06 04:33:11;;;;;;;12.00;7.00;;;;;;;-128.00;-1.00;-1.00;104612;1253;1013817;-54
2023/04/06 04:35:39;;;;;;;10.20;7.20;;;;;;;-128.00;-1.00;-1.00;106272;1253;1002276;-53
2023/04/06 04:38:07;;;;;;;12.50;7.00;;;;;;;-128.00;-1.00;-1.00;106352;1253;1011710;-55
2023/04/06 04:40:37;;;;;;;12.90;7.60;;;;;;;-128.00;-1.00;-1.00;106396;1253;1013640;-54
2023/04/06 04:43:09;;;;;;;9.20;7.60;;;;;;;-128.00;-1.00;-1.00;105879;1254;1013065;-53
2023/04/06 04:45:41;;;;;;;8.20;7.40;;;;;;;-128.00;-1.00;-1.00;103658;1257;1014021;-53
2023/04/06 04:48:23;;;;;;;7.40;6.60;;;;;;;-128.00;-1.00;-1.00;102375;1257;1010711;-53
2023/04/06 04:50:56;;;;;;;9.00;7.70;;;;;;;-128.00;-1.00;-1.00;102558;1257;1011803;-53
2023/04/06 04:53:26;;;;;;;6.70;6.00;;;;;;;-128.00;-1.00;-1.00;103029;1256;1013499;-54
2023/04/06 04:55:59;;;;;;;11.70;7.40;;;;;;;-128.00;-1.00;-1.00;105696;1252;1012422;-54
2023/04/06 04:58:31;;;;;;;7.40;6.70;;;;;;;-128.00;-1.00;-1.00;103093;1253;1012354;-54
2023/04/06 05:01:00;;;;;;;7.40;6.70;;;;;;;-128.00;-1.00;-1.00;102670;1258;1010749;-54
2023/04/06 05:03:29;;;;;;;9.20;6.60;;;;;;;-128.00;-1.00;-1.00;103051;1257;1010401;-53
2023/04/06 05:06:01;;;;;;;9.60;6.50;;;;;;;-128.00;-1.00;-1.00;103073;1253;1013141;-53
2023/04/06 05:08:34;;;;;;;7.80;6.50;;;;;;;-128.00;-1.00;-1.00;103046;1253;1012712;-53
2023/04/06 05:11:02;;;;;;;10.50;7.00;;;;;;;-128.00;-1.00;-1.00;102563;1257;1012425;-51
2023/04/06 05:13:34;;;;;;;8.30;7.10;;;;;;;-128.00;-1.00;-1.00;102550;1254;1010545;-53
2023/04/06 05:16:07;;;;;;;7.90;6.60;;;;;;;-128.00;-1.00;-1.00;102878;1253;1011917;-53
2023/04/06 05:18:36;;;;;;;8.80;7.00;;;;;;;-128.00;-1.00;-1.00;103083;1257;1013720;-53
2023/04/06 05:21:05;;;;;;;6.70;6.10;;;;;;;-128.00;-1.00;-1.00;102720;1257;1012980;-52
2023/04/06 05:23:49;;;;;;;7.80;6.50;;;;;;;-128.00;-1.00;-1.00;103762;1257;1012588;-53
2023/04/06 05:26:18;;;;;;;8.10;6.80;;;;;;;-128.00;-1.00;-1.00;103405;1253;1010805;-52
2023/04/06 05:28:46;;;;;;;8.30;6.10;;;;;;;-128.00;-1.00;-1.00;103801;1257;1011395;-53
2023/04/06 05:31:19;;;;;;;9.20;7.10;;;;;;;-128.00;-1.00;-1.00;102953;1253;1013747;-50
2023/04/06 05:33:50;;;;;;;8.10;7.30;;;;;;;-128.00;-1.00;-1.00;102706;1253;1012460;-52
2023/04/06 05:36:28;;;;;;;9.50;6.00;;;;;;;-128.00;-1.00;-1.00;102736;1257;1013256;-51
2023/04/06 05:38:56;;;;;;;8.30;7.50;;;;;;;-128.00;-1.00;-1.00;104638;1254;1010489;-54
2023/04/06 05:41:35;;;;;;;8.20;7.20;;;;;;;-128.00;-1.00;-1.00;102681;1255;1012137;-54
2023/04/06 05:44:04;;;;;;;7.70;6.90;;;;;;;-128.00;-1.00;-1.00;103184;1254;1012365;-51
2023/04/06 05:46:32;;;;;;;10.30;6.40;;;;;;;-128.00;-1.00;-1.00;102510;1257;1012459;-54
2023/04/06 05:49:03;;;;;;;6.40;5.60;;;;;;;-128.00;-1.00;-1.00;105914;1253;1012667;-52
2023/04/06 05:51:35;;;;;;;9.90;6.70;;;;;;;-128.00;-1.00;-1.00;106269;1253;1010198;-53
2023/04/06 05:54:03;;;;;;;6.30;5.70;;;;;;;-128.00;-1.00;-1.00;102995;1257;1004614;-53
2023/04/06 05:56:32;;;;;;;6.00;5.00;;;;;;;-128.00;-1.00;-1.00;103247;1253;1013396;-51
2023/04/06 05:59:00;;;;;;;8.50;6.20;;;;;;;-128.00;-1.00;-1.00;104027;1256;1013328;-47
2023/04/06 06:01:31;;;;;;;7.20;6.00;;;;;;;-128.00;-1.00;-1.00;103162;1256;1012275;-53
2023/04/06 06:04:00;;;;;;;10.80;6.10;;;;;;;-128.00;-1.00;-1.00;102843;1254;1009734;-53
2023/04/06 06:06:30;;;;;;;6.80;4.70;;;;;;;-128.00;-1.00;-1.00;105334;1255;1011672;-53
2023/04/06 06:09:16;;;;;;;5.60;5.10;;;;;;;-128.00;-1.00;-1.00;102792;1255;1012958;-53
2023/04/06 06:12:08;;;;;;;6.30;5.60;;;;;;;-128.00;-1.00;-1.00;103264;1253;1013936;-53
2023/04/06 06:14:38;;;;;;;5.70;5.10;;;;;;;-128.00;-1.00;-1.00;102761;1254;1012698;-52
2023/04/06 06:17:08;;;;;;;7.60;5.70;;;;;;;-128.00;-1.00;-1.00;103471;1256;1010810;-53
2023/04/06 06:19:38;;;;;;;7.80;5.60;;;;;;;-128.00;-1.00;-1.00;102714;1253;1014345;-51
2023/04/06 06:22:07;;;;;;;7.80;5.30;;;;;;;-128.00;-1.00;-1.00;103177;1251;1013517;-52
2023/04/06 06:24:38;;;;;;;9.00;6.10;;;;;;;-128.00;-1.00;-1.00;102796;1253;1012554;-53
2023/04/06 06:27:07;;;;;;;6.80;6.10;;;;;;;-128.00;-1.00;-1.00;102836;1253;1013223;-53
2023/04/06 06:29:36;;;;;;;7.30;5.70;;;;;;;-128.00;-1.00;-1.00;105190;1254;1009787;-54
2023/04/06 06:32:04;;;;;;;6.70;6.10;;;;;;;-128.00;-1.00;-1.00;103032;1255;1010939;-53
2023/04/06 06:34:33;;;;;;;8.50;6.10;;;;;;;-128.00;-1.00;-1.00;103652;1256;1013306;-53
2023/04/06 06:37:02;;;;;;;8.70;6.20;;;;;;;-128.00;-1.00;-1.00;102311;1255;1012484;-53
2023/04/06 06:39:31;;;;;;;7.50;5.60;;;;;;;-128.00;-1.00;-1.00;103807;1254;1012908;-51
2023/04/06 06:42:02;;;;;;;6.50;4.90;;;;;;;-128.00;-1.00;-1.00;106202;1253;1010591;-53
2023/04/06 06:44:45;;;;;;;9.40;5.80;;;;;;;-128.00;-1.00;-1.00;103763;1254;1011080;-52
2023/04/06 06:47:13;;;;;;;7.50;6.00;;;;;;;-128.00;-1.00;-1.00;103078;1254;1013626;-52
2023/04/06 06:49:41;;;;;;;5.50;5.10;;;;;;;-128.00;-1.00;-1.00;102929;1253;1003073;-52
2023/04/06 06:52:09;;;;;;;6.60;4.50;;;;;;;-128.00;-1.00;-1.00;106418;1253;1002106;-53
2023/04/06 06:54:37;;;;;;;7.40;4.80;;;;;;;-128.00;-1.00;-1.00;106380;1253;1002475;-54
2023/04/06 06:57:05;;;;;;;9.60;5.70;;;;;;;-128.00;-1.00;-1.00;106439;1253;1002646;-53
2023/04/06 06:59:34;;;;;;;5.80;4.90;;;;;;;-128.00;-1.00;-1.00;106299;1253;1012513;-54
2023/04/06 07:02:02;;;;;;;7.30;4.90;;;;;;;-128.00;-1.00;-1.00;106344;1254;1012369;-55
2023/04/06 07:04:30;;;;;;;9.50;5.80;;;;;;;-128.00;-1.00;-1.00;106435;1253;1012979;-55
2023/04/06 07:06:58;;;;;;;4.90;4.60;;;;;;;-128.00;-1.00;-1.00;106294;1254;1010091;-54
2023/04/06 07:09:27;;;;;;;9.40;5.20;;;;;;;-128.00;-1.00;-1.00;106369;1253;1011268;-55
2023/04/06 07:11:56;;;;;;;5.20;4.80;;;;;;;-128.00;-1.00;-1.00;106345;1253;1002538;-53
2023/04/06 07:14:27;;;;;;;6.70;4.60;;;;;;;-128.00;-1.00;-1.00;106407;1253;1013171;-54
2023/04/06 07:16:55;;;;;;;8.60;5.10;;;;;;;-128.00;-1.00;-1.00;106259;1253;1012257;-54
2023/04/06 07:19:24;;;;;;;4.30;3.90;;;;;;;-128.00;-1.00;-1.00;104105;1253;1009630;-53
2023/04/06 07:21:52;;;;;;;5.60;4.30;;;;;;;-128.00;-1.00;-1.00;106128;1253;1011413;-54
2023/04/06 07:24:20;;;;;;;5.90;4.40;;;;;;;-128.00;-1.00;-1.00;102667;1255;1002951;-54
2023/04/06 07:26:50;;;;;;;5.40;4.00;;;;;;;-128.00;-1.00;-1.00;102755;1256;1012397;-53
2023/04/06 07:29:18;;;;;;;9.90;3.70;;;;;;;-128.00;-1.00;-1.00;102686;1257;1013091;-53
2023/04/06 07:31:46;;;;;;;4.00;3.40;;;;;;;-128.00;-1.00;-1.00;106395;1253;1011139;-54
2023/04/06 07:34:16;;;;;;;6.00;3.70;;;;;;;-128.00;-1.00;-1.00;106387;1253;1010683;-54
2023/04/06 07:36:49;;;;;;;5.40;4.10;;;;;;;-128.00;-1.00;-1.00;103618;1253;1012261;-54
2023/04/06 07:39:17;;;;;;;4.10;3.80;;;;;;;-128.00;-1.00;-1.00;105135;1253;1012957;-54
2023/04/06 07:41:46;;;;;;;3.60;2.90;;;;;;;-128.00;-1.00;-1.00;103120;1256;1012778;-54
2023/04/06 07:44:14;;;;;;;5.90;3.90;;;;;;;-128.00;-1.00;-1.00;102727;1253;1012066;-54
2023/04/06 07:46:43;;;;;;;3.80;2.90;;;;;;;-128.00;-1.00;-1.00;102801;1253;1010958;-53
2023/04/06 07:49:12;;;;;;;4.20;3.30;;;;;;;-128.00;-1.00;-1.00;102783;1257;1012818;-53
2023/04/06 07:51:41;;;;;;;8.60;4.10;;;;;;;-128.00;-1.00;-1.00;102808;1256;1013619;-52
2023/04/06 07:54:09;;;;;;;4.60;2.80;;;;;;;-128.00;-1.00;-1.00;103735;1254;1012502;-53
2023/04/06 07:56:37;;;;;;;5.70;3.40;;;;;;;-128.00;-1.00;-1.00;103174;1257;1010487;-52
2023/04/06 07:59:05;;;;;;;3.90;3.00;;;;;;;-128.00;-1.00;-1.00;103622;1255;1002734;-52
2023/04/06 08:01:33;;;;;;;3.40;2.60;;;;;;;-128.00;-1.00;-1.00;102778;1257;1013898;-52
2023/04/06 08:04:02;;;;;;;4.30;3.50;;;;;;;-128.00;-1.00;-1.00;102764;1256;1012638;-53
2023/04/06 08:06:30;;;;;;;8.70;2.80;;;;;;;-128.00;-1.00;-1.00;102703;1254;1013003;-53
2023/04/06 08:08:58;;;;;;;10.70;5.00;;;;;;;-128.00;-1.00;-1.00;103297;1256;1010310;-53
2023/04/06 08:11:27;;;;;;;6.20;3.30;;;;;;;-128.00;-1.00;-1.00;102721;1254;1002519;-54
2023/04/06 08:13:56;;;;;;;4.20;3.80;;;;;;;-128.00;-1.00;-1.00;106331;1256;1013756;-54
2023/04/06 08:16:24;;;;;;;8.10;3.80;;;;;;;-128.00;-1.00;-1.00;104539;1253;1012489;-56
2023/04/06 08:18:53;;;;;;;6.90;3.70;;;;;;;-128.00;-1.00;-1.00;102774;1257;1012967;-53
2023/04/06 08:21:21;;;;;;;9.10;3.80;;;;;;;-128.00;-1.00;-1.00;106213;1253;1002370;-54
2023/04/06 08:23:50;;;;;;;7.70;3.80;;;;;;;-128.00;-1.00;-1.00;104883;1253;1010643;-53
2023/04/06 08:26:18;;;;;;;8.80;3.60;;;;;;;-128.00;-1.00;-1.00;104487;1257;1013362;-53
2023/04/06 08:28:50;;;;;;;5.20;3.40;;;;;;;-128.00;-1.00;-1.00;103107;1257;1012374;-54
2023/04/06 08:31:18;;;;;;;7.20;2.90;;;;;;;-128.00;-1.00;-1.00;103386;1252;1013730;-54
2023/04/06 08:33:47;;;;;;;5.50;3.30;;;;;;;-128.00;-1.00;-1.00;103130;1257;1011355;-54
2023/04/06 08:36:18;;;;;;;5.20;2.90;;;;;;;-128.00;-1.00;-1.00;106378;1252;1012280;-54
2023/04/06 08:38:46;;;;;;;3.60;2.40;;;;;;;-128.00;-1.00;-1.00;104701;1253;1012998;-53
2023/04/06 08:41:14;;;;;;;4.00;2.80;;;;;;;-128.00;-1.00;-1.00;103624;1254;1002885;-53
2023/04/06 08:43:47;;;;;;;6.20;2.80;;;;;;;-128.00;-1.00;-1.00;102995;1253;1014642;-53
2023/04/06 08:46:15;;;;;;;8.10;2.60;;;;;;;-128.00;-1.00;-1.00;102932;1257;1010083;-53
2023/04/06 08:48:44;;;;;;;5.30;2.80;;;;;;;-128.00;-1.00;-1.00;106380;1253;1011371;-54
2023/04/06 08:51:13;;;;;;;9.20;2.10;;;;;;;-128.00;-1.00;-1.00;106416;1252;1012312;-54
2023/04/06 08:53:41;;;;;;;4.10;3.10;;;;;;;-128.00;-1.00;-1.00;103306;1257;1012893;-55
2023/04/06 08:56:10;;;;;;;5.40;2.60;;;;;;;-128.00;-1.00;-1.00;102996;1253;1002073;-54
2023/04/06 08:58:39;;;;;;;6.10;3.30;;;;;;;-128.00;-1.00;-1.00;102519;1257;1010942;-55
2023/04/06 09:01:11;;;;;;;6.40;2.30;;;;;;;-128.00;-1.00;-1.00;104499;1257;1010581;-54
2023/04/06 09:03:44;;;;;;;4.50;2.80;;;;;;;-128.00;-1.00;-1.00;103600;1252;1013659;-53
2023/04/06 09:06:13;;;;;;;8.10;3.30;;;;;;;-128.00;-1.00;-1.00;104550;1252;1012777;-54
2023/04/06 09:08:41;;;;;;;6.50;3.10;;;;;;;-128.00;-1.00;-1.00;103242;1257;1004285;-54
2023/04/06 09:11:09;;;;;;;3.70;2.80;;;;;;;-128.00;-1.00;-1.00;102958;1257;1002596;-54
2023/04/06 09:13:51;;;;;;;5.70;2.80;;;;;;;-128.00;-1.00;-1.00;102894;1257;1011375;-54
2023/04/06 09:16:19;;;;;;;8.90;3.70;;;;;;;-128.00;-1.00;-1.00;102908;1257;1016073;-54
2023/04/06 09:18:47;;;;;;;7.60;3.10;;;;;;;-128.00;-1.00;-1.00;102658;1257;1012612;-54
2023/04/06 09:21:17;;;;;;;5.90;2.60;;;;;;;-128.00;-1.00;-1.00;102848;1253;1014723;-53
2023/04/06 09:23:45;;;;;;;7.50;3.10;;;;;;;-128.00;-1.00;-1.00;102818;1256;1009972;-53
2023/04/06 09:26:17;;;;;;;6.20;3.40;;;;;;;-128.00;-1.00;-1.00;102919;1257;1011276;-53
2023/04/06 09:28:49;;;;;;;5.40;2.60;;;;;;;-128.00;-1.00;-1.00;102741;1257;1012976;-52
2023/04/06 09:31:30;;;;;;;5.10;3.50;;;;;;;-128.00;-1.00;-1.00;106436;1253;1011766;-54
2023/04/06 09:33:58;;;;;;;6.00;3.00;;;;;;;-128.00;-1.00;-1.00;104568;1255;1013361;-54
2023/04/06 09:36:31;;;;;;;6.30;3.90;;;;;;;-128.00;-1.00;-1.00;103438;1257;1010128;-54
2023/04/06 09:39:04;;;;;;;7.90;3.40;;;;;;;-128.00;-1.00;-1.00;106476;1253;1010991;-54
2023/04/06 09:41:34;;;;;;;7.40;3.90;;;;;;;-128.00;-1.00;-1.00;106440;1252;1012275;-54
2023/04/06 09:44:11;;;;;;;5.40;3.40;;;;;;;-128.00;-1.00;-1.00;106498;1253;1012128;-55
2023/04/06 09:46:41;;;;;;;3.60;3.20;;;;;;;-128.00;-1.00;-1.00;106223;1253;1011844;-54
2023/04/06 09:49:30;;;;;;;6.70;3.30;;;;;;;-128.00;-1.00;-1.00;106394;1253;1010568;-54
2023/04/06 09:51:59;;;;;;;4.10;3.50;;;;;;;-128.00;-1.00;-1.00;106379;1253;1010447;-55
2023/04/06 09:54:29;;;;;;;6.60;2.90;;;;;;;-128.00;-1.00;-1.00;106329;1253;1012242;-54
2023/04/06 09:57:11;;;;;;;6.10;3.60;;;;;;;-128.00;-1.00;-1.00;106391;1257;1011636;-54
2023/04/06 10:00:20;;;;;;;7.00;2.90;;;;;;;-128.00;-1.00;-1.00;106320;1253;1012899;-54
2023/04/06 10:03:11;;;;;;;;;;;;;;;-128.00;-1.00;-1.00;105522;1253;1009833;-54
2023/04/06 10:05:48;;;;;;;5.50;3.10;;;;;;;-128.00;-1.00;-1.00;106396;1253;1010661;-54
2023/04/06 10:08:16;;;;;;;6.60;2.70;;;;;;;-128.00;-1.00;-1.00;106363;1253;1013490;-53
2023/04/06 10:10:46;;;;;;;5.50;2.30;;;;;;;-128.00;-1.00;-1.00;106474;1252;1012831;-53
2023/04/06 10:13:14;;;;;;;6.40;2.50;;;;;;;-128.00;-1.00;-1.00;106376;1253;1013097;-54
2023/04/06 10:15:42;;;;;;;6.80;2.80;;;;;;;-128.00;-1.00;-1.00;106465;1255;1002343;-54
2023/04/06 10:18:10;;;;;;;5.30;2.20;;;;;;;-128.00;-1.00;-1.00;106385;1252;1011003;-53
2023/04/06 10:21:00;;;;;;;4.30;2.40;;;;;;;-128.00;-1.00;-1.00;106363;1253;1012617;-54
2023/04/06 10:23:31;;;;;;;3.10;2.60;;;;;;;-128.00;-1.00;-1.00;106329;1256;1013386;-54
2023/04/06 10:26:00;;;;;;;4.90;2.40;;;;;;;-128.00;-1.00;-1.00;105331;1253;1013871;-50
2023/04/06 10:28:34;;;;;;;4.40;2.20;;;;;;;-128.00;-1.00;-1.00;103663;1254;1009699;-55
2023/04/06 10:31:05;;;;;;;4.70;2.80;;;;;;;-128.00;-1.00;-1.00;103647;1254;1011392;-52
2023/04/06 10:33:36;;;;;;;3.70;2.10;;;;;;;-128.00;-1.00;-1.00;103575;1257;1013536;-53
2023/04/06 10:36:14;;;;;;;3.10;2.70;;;;;;;-128.00;-1.00;-1.00;102853;1257;1004789;-50
2023/04/06 10:38:42;;;;;;;4.40;3.10;;;;;;;-128.00;-1.00;-1.00;106144;1253;1012880;-53
2023/04/06 10:41:11;;;;;;;5.60;2.90;;;;;;;-128.00;-1.00;-1.00;102840;1257;1010876;-53
2023/04/06 10:43:40;;;;;;;5.80;2.60;;;;;;;-128.00;-1.00;-1.00;103337;1257;1010786;-54
2023/04/06 10:46:11;;;;;;;4.00;3.00;;;;;;;-128.00;-1.00;-1.00;103618;1254;1012893;-54
2023/04/06 10:48:49;;;;;;;3.10;2.60;;;;;;;-128.00;-1.00;-1.00;105440;1253;1012862;-52
2023/04/06 10:51:18;;;;;;;4.00;3.40;;;;;;;-128.00;-1.00;-1.00;103419;1253;1013655;-50
2023/04/06 10:53:48;;;;;;;4.70;2.70;;;;;;;-128.00;-1.00;-1.00;103795;1253;1009974;-51
2023/04/06 10:56:17;;;;;;;5.80;4.30;;;;;;;-128.00;-1.00;-1.00;102996;1254;1010743;-52
2023/04/06 10:58:55;;;;;;;8.50;4.60;;;;;;;-128.00;-1.00;-1.00;102886;1257;1013152;-50
2023/04/06 11:01:25;;;;;;;4.90;4.10;;;;;;;-128.00;-1.00;-1.00;102750;1257;1012542;-50
2023/04/06 11:03:57;;;;;;;6.30;4.90;;;;;;;-128.00;-1.00;-1.00;103132;1253;1012687;-50
2023/04/06 11:06:31;;;;;;;5.40;3.90;;;;;;;-128.00;-1.00;-1.00;102833;1253;1010686;-50
2023/04/06 11:09:00;;;;;;;6.10;4.90;;;;;;;-128.00;-1.00;-1.00;102807;1256;1010562;-49
2023/04/06 11:11:28;;;;;;;5.00;4.60;;;;;;;-128.00;-1.00;-1.00;103661;1253;1012585;-51
2023/04/06 11:14:01;;;;;;;5.80;3.90;;;;;;;-128.00;-1.00;-1.00;102924;1258;1012194;-51
2023/04/06 11:16:31;;;;;;;4.90;3.70;;;;;;;-128.00;-1.00;-1.00;102935;1253;1012681;-51
2023/04/06 11:19:01;;;;;;;5.00;4.50;;;;;;;-128.00;-1.00;-1.00;103238;1254;1011045;-53
2023/04/06 11:21:40;;;;;;;5.00;4.50;;;;;;;-128.00;-1.00;-1.00;104060;1253;1011599;-53
2023/04/06 11:24:16;;;;;;;6.30;4.80;;;;;;;-128.00;-1.00;-1.00;103873;1257;1013205;-53
2023/04/06 11:26:52;;;;;;;7.40;5.40;;;;;;;-128.00;-1.00;-1.00;102917;1258;1012672;-53
2023/04/06 11:29:26;;;;;;;6.20;5.60;;;;;;;-128.00;-1.00;-1.00;106030;1253;1013478;-52
2023/04/06 11:31:58;;;;;;;6.00;5.60;;;;;;;-128.00;-1.00;-1.00;103103;1254;1009639;-51
2023/04/06 11:34:28;;;;;;;6.80;6.00;;;;;;;-128.00;-1.00;-1.00;103006;1257;1011275;-51
2023/04/06 11:37:01;;;;;;;6.80;6.00;;;;;;;-128.00;-1.00;-1.00;103048;1253;1012850;-50
2023/04/06 11:39:30;;;;;;;8.70;5.20;;;;;;;-128.00;-1.00;-1.00;103086;1253;1012468;-52
2023/04/06 11:41:59;;;;;;;6.80;6.00;;;;;;;-128.00;-1.00;-1.00;103888;1253;1012773;-53
2023/04/06 11:44:34;;;;;;;6.90;6.20;;;;;;;-128.00;-1.00;-1.00;103030;1253;1010259;-53
2023/04/06 11:47:11;;;;;;;6.90;5.70;;;;;;;-128.00;-1.00;-1.00;102942;1253;1011248;-54
2023/04/06 11:49:50;;;;;;;10.70;6.60;;;;;;;-128.00;-1.00;-1.00;102862;1256;1013648;-51
2023/04/06 11:52:20;;;;;;;6.80;6.10;;;;;;;-128.00;-1.00;-1.00;102773;1253;1012457;-50
2023/04/06 11:54:50;;;;;;;8.70;6.20;;;;;;;-128.00;-1.00;-1.00;102699;1253;1014350;-50
2023/04/06 11:57:19;;;;;;;9.50;6.60;;;;;;;-128.00;-1.00;-1.00;104132;1252;1010005;-53
2023/04/06 11:59:47;;;;;;;10.00;7.40;;;;;;;-128.00;-1.00;-1.00;103120;1253;1010796;-52
2023/04/06 12:02:15;;;;;;;10.80;7.90;;;;;;;-128.00;-1.00;-1.00;103285;1257;1014386;-54
2023/04/06 12:04:43;;;;;;;8.30;7.60;;;;;;;-128.00;-1.00;-1.00;102949;1255;1002147;-54
2023/04/06 12:07:11;;;;;;;9.10;7.80;;;;;;;-128.00;-1.00;-1.00;102679;1253;1013515;-52
2023/04/06 12:09:41;;;;;;;7.50;6.40;;;;;;;-128.00;-1.00;-1.00;102725;1253;1004302;-50
2023/04/06 12:12:08;;;;;;;11.00;8.50;;;;;;;-128.00;-1.00;-1.00;104252;1257;1010923;-52
2023/04/06 12:14:38;;;;;;;10.80;7.50;;;;;;;-128.00;-1.00;-1.00;102815;1256;1012383;-54
2023/04/06 12:17:06;;;;;;;8.20;7.40;;;;;;;-128.00;-1.00;-1.00;103077;1253;1012159;-53
2023/04/06 12:19:35;;;;;;;8.30;7.60;;;;;;;-128.00;-1.00;-1.00;102982;1254;1014865;-53
2023/04/06 12:22:02;;;;;;;8.00;6.90;;;;;;;-128.00;-1.00;-1.00;102922;1256;1003390;-53
2023/04/06 12:24:31;;;;;;;9.60;7.50;;;;;;;-128.00;-1.00;-1.00;102935;1256;1003195;-52